sensor_id;sensor_type;location;lat;lon;timestamp;pressure;altitude;pressure_sealevel;temperature;humidity
73821;BME280;62150;43.582;1.456;2022-12-29T04:32:24;100243.50;;;10.01;100.00
73821;BME280;62150;43.582;1.456;2022-12-29T04:34:51;100246.72;;;10.06;100.00
73821;BME280;62150;43.582;1.456;2022-12-29T04:37:19;100244.81;;;10.12;100.00
73821;BME280;62150;43.582;1.456;2022-12-29T04:39:46;100244.72;;;10.15;100.00
73821;BME280;62150;43.582;1.456;2022-12-29T04:42:14;100245.38;;;10.21;100.00
73821;BME280;62150;43.582;1.456;2022-12-29T04:44:41;100226.50;;;10.22;100.00
73821;BME280;62150;43.582;1.456;2022-12-29T04:47:08;100248.22;;;10.37;100.00
73821;BME280;62150;43.582;1.456;2022-12-29T04:49:37;100253.91;;;10.45;100.00
73821;BME280;62150;43.582;1.456;2022-12-29T04:52:05;100260.59;;;10.49;100.00
73821;BME280;62150;43.582;1.456;2022-12-29T04:54:34;100265.41;;;10.58;100.00
73821;BME280;62150;43.582;1.456;2022-12-29T04:57:01;100270.22;;;10.67;100.00
73821;BME280;62150;43.582;1.456;2022-12-29T04:59:29;100278.03;;;10.64;100.00
73821;BME280;62150;43.582;1.456;2022-12-29T05:01:56;100280.31;;;10.72;100.00
73821;BME280;62150;43.582;1.456;2022-12-29T05:04:24;100274.88;;;10.80;100.00
73821;BME280;62150;43.582;1.456;2022-12-29T05:06:53;100270.94;;;10.71;100.00
73821;BME280;62150;43.582;1.456;2022-12-29T05:09:21;100271.91;;;10.90;100.00
73821;BME280;62150;43.582;1.456;2022-12-29T05:11:49;100276.13;;;10.69;100.00
73821;BME280;62150;43.582;1.456;2022-12-29T05:14:17;100285.31;;;10.75;100.00
73821;BME280;62150;43.582;1.456;2022-12-29T05:16:44;100286.84;;;10.81;100.00
73821;BME280;62150;43.582;1.456;2022-12-29T05:19:12;100285.16;;;10.80;100.00
73821;BME280;62150;43.582;1.456;2022-12-29T05:21:39;100291.47;;;10.94;100.00
73821;BME280;62150;43.582;1.456;2022-12-29T05:24:08;100285.59;;;10.91;100.00
73821;BME280;62150;43.582;1.456;2022-12-29T05:26:36;100293.09;;;10.97;100.00
73821;BME280;62150;43.582;1.456;2022-12-29T05:29:04;100288.88;;;10.94;100.00
73821;BME280;62150;43.582;1.456;2022-12-29T05:31:31;100279.34;;;10.98;100.00
73821;BME280;62150;43.582;1.456;2022-12-29T05:33:59;100283.63;;;10.97;100.00
73821;BME280;62150;43.582;1.456;2022-12-29T05:36:27;100289.28;;;11.07;100.00
73821;BME280;62150;43.582;1.456;2022-12-29T05:38:54;100281.94;;;11.18;100.00
73821;BME280;62150;43.582;1.456;2022-12-29T05:41:23;100290.34;;;11.23;100.00
73821;BME280;62150;43.582;1.456;2022-12-29T05:43:51;100292.84;;;11.03;100.00
73821;BME280;62150;43.582;1.456;2022-12-29T05:46:19;100287.03;;;10.98;100.00
73821;BME280;62150;43.582;1.456;2022-12-29T05:48:46;100296.09;;;11.08;100.00
73821;BME280;62150;43.582;1.456;2022-12-29T05:51:14;100289.50;;;11.01;100.00
73821;BME280;62150;43.582;1.456;2022-12-29T05:53:41;100293.69;;;11.03;100.00
73821;BME280;62150;43.582;1.456;2022-12-29T05:56:09;100290.28;;;11.03;100.00
73821;BME280;62150;43.582;1.456;2022-12-29T05:58:38;100290.34;;;11.01;100.00
73821;BME280;62150;43.582;1.456;2022-12-29T06:01:06;100288.44;;;11.06;100.00
73821;BME280;62150;43.582;1.456;2022-12-29T06:03:33;100287.88;;;10.98;100.00
73821;BME280;62150;43.582;1.456;2022-12-29T06:06:01;100288.38;;;11.08;100.00
73821;BME280;62150;43.582;1.456;2022-12-29T06:08:28;100299.78;;;11.01;100.00
73821;BME280;62150;43.582;1.456;2022-12-29T06:10:56;100289.84;;;11.14;100.00
73821;BME280;62150;43.582;1.456;2022-12-29T06:13:23;100276.94;;;11.15;100.00
73821;BME280;62150;43.582;1.456;2022-12-29T06:15:52;100273.78;;;11.08;100.00
73821;BME280;62150;43.582;1.456;2022-12-29T06:18:20;100270.72;;;10.99;100.00
73821;BME280;62150;43.582;1.456;2022-12-29T06:20:48;100265.75;;;10.94;100.00
73821;BME280;62150;43.582;1.456;2022-12-29T06:23:15;100268.38;;;10.93;100.00
73821;BME280;62150;43.582;1.456;2022-12-29T06:25:44;100266.44;;;10.99;100.00
73821;BME280;62150;43.582;1.456;2022-12-29T06:28:12;100265.09;;;10.89;100.00
73821;BME280;62150;43.582;1.456;2022-12-29T06:30:39;100262.84;;;11.03;100.00
73821;BME280;62150;43.582;1.456;2022-12-29T06:33:08;100261.81;;;11.07;100.00
73821;BME280;62150;43.582;1.456;2022-12-29T06:35:35;100254.63;;;10.94;100.00
73821;BME280;62150;43.582;1.456;2022-12-29T06:38:03;100249.31;;;10.98;100.00
73821;BME280;62150;43.582;1.456;2022-12-29T06:40:31;100251.13;;;10.96;100.00
73821;BME280;62150;43.582;1.456;2022-12-29T06:42:59;100249.44;;;10.95;100.00
73821;BME280;62150;43.582;1.456;2022-12-29T06:45:26;100250.72;;;11.07;100.00
73821;BME280;62150;43.582;1.456;2022-12-29T06:47:54;100245.25;;;10.93;100.00
73821;BME280;62150;43.582;1.456;2022-12-29T06:50:23;100246.88;;;10.95;100.00
73821;BME280;62150;43.582;1.456;2022-12-29T06:52:51;100247.47;;;11.02;100.00
73821;BME280;62150;43.582;1.456;2022-12-29T06:55:18;100249.22;;;11.01;100.00
73821;BME280;62150;43.582;1.456;2022-12-29T06:57:47;100247.47;;;11.02;100.00
73821;BME280;62150;43.582;1.456;2022-12-29T07:00:15;100246.69;;;11.00;100.00
73821;BME280;62150;43.582;1.456;2022-12-29T07:02:43;100248.38;;;11.01;100.00
73821;BME280;62150;43.582;1.456;2022-12-29T07:05:10;100243.69;;;11.11;100.00
73821;BME280;62150;43.582;1.456;2022-12-29T07:07:41;100248.97;;;11.07;100.00
73821;BME280;62150;43.582;1.456;2022-12-29T07:10:08;100245.56;;;11.07;100.00
73821;BME280;62150;43.582;1.456;2022-12-29T07:12:36;100250.97;;;11.21;100.00
73821;BME280;62150;43.582;1.456;2022-12-29T07:15:04;100255.53;;;11.15;100.00
73821;BME280;62150;43.582;1.456;2022-12-29T07:17:32;100254.03;;;11.09;100.00
73821;BME280;62150;43.582;1.456;2022-12-29T07:19:59;100248.34;;;11.23;100.00
73821;BME280;62150;43.582;1.456;2022-12-29T07:22:27;100240.94;;;11.15;100.00
73821;BME280;62150;43.582;1.456;2022-12-29T07:24:55;100245.94;;;11.18;100.00
73821;BME280;62150;43.582;1.456;2022-12-29T07:27:23;100246.19;;;11.12;100.00
73821;BME280;62150;43.582;1.456;2022-12-29T07:29:51;100254.56;;;11.17;100.00
73821;BME280;62150;43.582;1.456;2022-12-29T07:32:19;100262.41;;;11.14;100.00
73821;BME280;62150;43.582;1.456;2022-12-29T07:34:46;100265.97;;;11.10;100.00
73821;BME280;62150;43.582;1.456;2022-12-29T07:37:15;100273.00;;;11.28;100.00
73821;BME280;62150;43.582;1.456;2022-12-29T07:39:43;100282.91;;;11.37;100.00
73821;BME280;62150;43.582;1.456;2022-12-29T07:42:12;100277.66;;;11.40;100.00
73821;BME280;62150;43.582;1.456;2022-12-29T07:44:39;100282.31;;;11.09;100.00
73821;BME280;62150;43.582;1.456;2022-12-29T07:47:07;100278.50;;;11.19;100.00
73821;BME280;62150;43.582;1.456;2022-12-29T07:49:34;100275.44;;;11.31;100.00
73821;BME280;62150;43.582;1.456;2022-12-29T07:52:02;100280.09;;;11.22;100.00
73821;BME280;62150;43.582;1.456;2022-12-29T07:54:29;100284.59;;;11.38;100.00
73821;BME280;62150;43.582;1.456;2022-12-29T07:56:57;100290.72;;;11.56;100.00
73821;BME280;62150;43.582;1.456;2022-12-29T07:59:27;100294.81;;;11.40;100.00
73821;BME280;62150;43.582;1.456;2022-12-29T08:01:55;100293.97;;;11.39;100.00
73821;BME280;62150;43.582;1.456;2022-12-29T08:04:22;100293.81;;;11.64;100.00
73821;BME280;62150;43.582;1.456;2022-12-29T08:06:50;100291.53;;;11.36;100.00
73821;BME280;62150;43.582;1.456;2022-12-29T08:09:17;100303.00;;;11.50;100.00
73821;BME280;62150;43.582;1.456;2022-12-29T08:11:45;100292.97;;;11.64;100.00
73821;BME280;62150;43.582;1.456;2022-12-29T08:14:12;100300.75;;;11.62;100.00
73821;BME280;62150;43.582;1.456;2022-12-29T08:16:41;100290.28;;;11.67;100.00
73821;BME280;62150;43.582;1.456;2022-12-29T08:19:10;100285.66;;;11.75;100.00
73821;BME280;62150;43.582;1.456;2022-12-29T08:21:38;100283.72;;;11.60;100.00
73821;BME280;62150;43.582;1.456;2022-12-29T08:24:07;100289.44;;;11.66;100.00
73821;BME280;62150;43.582;1.456;2022-12-29T08:26:35;100287.31;;;11.78;100.00
73821;BME280;62150;43.582;1.456;2022-12-29T08:29:02;100288.25;;;11.75;100.00
73821;BME280;62150;43.582;1.456;2022-12-29T08:31:30;100283.75;;;12.00;100.00
73821;BME280;62150;43.582;1.456;2022-12-29T08:34:00;100288.47;;;12.11;100.00
73821;BME280;62150;43.582;1.456;2022-12-29T08:36:29;100287.09;;;12.02;100.00
73821;BME280;62150;43.582;1.456;2022-12-29T08:38:57;100292.47;;;11.78;100.00
73821;BME280;62150;43.582;1.456;2022-12-29T08:41:24;100281.97;;;12.02;100.00
73821;BME280;62150;43.582;1.456;2022-12-29T08:43:52;100281.81;;;12.05;100.00
73821;BME280;62150;43.582;1.456;2022-12-29T08:46:20;100281.75;;;11.87;100.00
73821;BME280;62150;43.582;1.456;2022-12-29T08:48:47;100272.63;;;12.00;100.00
73821;BME280;62150;43.582;1.456;2022-12-29T08:51:16;100276.91;;;11.79;100.00
73821;BME280;62150;43.582;1.456;2022-12-29T08:53:44;100284.66;;;11.99;100.00
73821;BME280;62150;43.582;1.456;2022-12-29T08:56:11;100285.03;;;12.11;100.00
73821;BME280;62150;43.582;1.456;2022-12-29T08:58:39;100286.41;;;11.99;100.00
73821;BME280;62150;43.582;1.456;2022-12-29T09:01:08;100285.50;;;12.00;100.00
73821;BME280;62150;43.582;1.456;2022-12-29T09:03:36;100293.03;;;12.04;100.00
73821;BME280;62150;43.582;1.456;2022-12-29T09:06:03;100292.84;;;12.09;100.00
73821;BME280;62150;43.582;1.456;2022-12-29T09:08:32;100293.94;;;12.03;100.00
73821;BME280;62150;43.582;1.456;2022-12-29T09:11:06;100281.66;;;12.29;100.00
73821;BME280;62150;43.582;1.456;2022-12-29T09:13:35;100278.22;;;12.10;100.00
73821;BME280;62150;43.582;1.456;2022-12-29T09:16:03;100286.72;;;12.12;100.00
73821;BME280;62150;43.582;1.456;2022-12-29T09:18:31;100282.44;;;12.31;100.00
73821;BME280;62150;43.582;1.456;2022-12-29T09:20:59;100282.56;;;12.28;100.00
73821;BME280;62150;43.582;1.456;2022-12-29T09:23:27;100287.72;;;12.28;100.00
73821;BME280;62150;43.582;1.456;2022-12-29T09:25:57;100281.97;;;12.41;100.00
73821;BME280;62150;43.582;1.456;2022-12-29T09:28:24;100270.38;;;12.31;100.00
73821;BME280;62150;43.582;1.456;2022-12-29T09:30:52;100263.28;;;12.36;100.00
73821;BME280;62150;43.582;1.456;2022-12-29T09:33:20;100258.84;;;12.40;100.00
73821;BME280;62150;43.582;1.456;2022-12-29T09:35:51;100256.59;;;12.51;100.00
73821;BME280;62150;43.582;1.456;2022-12-29T09:38:20;100245.59;;;12.29;100.00
73821;BME280;62150;43.582;1.456;2022-12-29T09:40:51;100244.28;;;12.39;100.00
73821;BME280;62150;43.582;1.456;2022-12-29T09:43:43;100246.38;;;12.68;100.00
73821;BME280;62150;43.582;1.456;2022-12-29T09:46:18;100253.34;;;12.66;100.00
73821;BME280;62150;43.582;1.456;2022-12-29T09:48:54;100250.75;;;12.66;100.00
73821;BME280;62150;43.582;1.456;2022-12-29T09:51:24;100246.94;;;12.75;100.00
73821;BME280;62150;43.582;1.456;2022-12-29T09:53:55;100255.56;;;12.74;100.00
73821;BME280;62150;43.582;1.456;2022-12-29T09:56:25;100254.09;;;12.68;100.00
73821;BME280;62150;43.582;1.456;2022-12-29T09:58:59;100252.50;;;12.66;100.00
73821;BME280;62150;43.582;1.456;2022-12-29T10:01:32;100241.78;;;12.56;100.00
73821;BME280;62150;43.582;1.456;2022-12-29T10:04:02;100249.59;;;12.73;100.00
73821;BME280;62150;43.582;1.456;2022-12-29T10:06:36;100254.00;;;12.89;100.00
73821;BME280;62150;43.582;1.456;2022-12-29T10:09:13;100247.28;;;12.67;100.00
73821;BME280;62150;43.582;1.456;2022-12-29T10:11:56;100242.16;;;13.03;100.00
73821;BME280;62150;43.582;1.456;2022-12-29T10:14:40;100236.81;;;13.25;100.00
73821;BME280;62150;43.582;1.456;2022-12-29T10:17:24;100231.69;;;13.06;100.00
73821;BME280;62150;43.582;1.456;2022-12-29T10:22:54;100226.66;;;13.57;100.00
73821;BME280;62150;43.582;1.456;2022-12-29T10:25:32;100231.66;;;13.60;100.00
73821;BME280;62150;43.582;1.456;2022-12-29T10:28:05;100227.78;;;13.68;100.00
73821;BME280;62150;43.582;1.456;2022-12-29T10:30:38;100225.06;;;13.71;100.00
73821;BME280;62150;43.582;1.456;2022-12-29T10:33:11;100219.53;;;13.95;100.00
73821;BME280;62150;43.582;1.456;2022-12-29T10:35:40;100222.66;;;14.01;100.00
73821;BME280;62150;43.582;1.456;2022-12-29T10:38:15;100215.38;;;13.92;100.00
73821;BME280;62150;43.582;1.456;2022-12-29T10:40:50;100210.56;;;13.52;100.00
73821;BME280;62150;43.582;1.456;2022-12-29T10:43:24;100219.50;;;13.62;100.00
73821;BME280;62150;43.582;1.456;2022-12-29T10:45:54;100212.53;;;13.64;100.00
73821;BME280;62150;43.582;1.456;2022-12-29T10:48:24;100218.16;;;13.55;100.00
73821;BME280;62150;43.582;1.456;2022-12-29T10:50:55;100223.69;;;13.64;100.00
73821;BME280;62150;43.582;1.456;2022-12-29T10:53:26;100221.81;;;13.51;100.00
73821;BME280;62150;43.582;1.456;2022-12-29T10:55:57;100221.50;;;13.74;100.00
73821;BME280;62150;43.582;1.456;2022-12-29T10:58:26;100216.31;;;13.57;100.00
73821;BME280;62150;43.582;1.456;2022-12-29T11:00:59;100211.53;;;13.66;100.00
73821;BME280;62150;43.582;1.456;2022-12-29T11:03:46;100209.59;;;13.87;100.00
73821;BME280;62150;43.582;1.456;2022-12-29T11:06:21;100209.66;;;14.03;100.00
73821;BME280;62150;43.582;1.456;2022-12-29T11:08:55;100209.56;;;14.04;100.00
73821;BME280;62150;43.582;1.456;2022-12-29T11:11:26;100212.38;;;14.17;100.00
73821;BME280;62150;43.582;1.456;2022-12-29T11:13:58;100195.69;;;14.23;100.00
73821;BME280;62150;43.582;1.456;2022-12-29T11:16:31;100198.69;;;14.31;100.00
73821;BME280;62150;43.582;1.456;2022-12-29T11:19:00;100202.22;;;14.61;100.00
73821;BME280;62150;43.582;1.456;2022-12-29T11:21:32;100199.38;;;14.19;100.00
73821;BME280;62150;43.582;1.456;2022-12-29T11:24:01;100211.75;;;14.45;100.00
73821;BME280;62150;43.582;1.456;2022-12-29T11:26:30;100196.56;;;14.70;100.00
73821;BME280;62150;43.582;1.456;2022-12-29T11:29:17;100193.88;;;14.40;100.00
73821;BME280;62150;43.582;1.456;2022-12-29T11:31:50;100186.34;;;14.53;100.00
73821;BME280;62150;43.582;1.456;2022-12-29T11:34:19;100186.06;;;14.89;100.00
73821;BME280;62150;43.582;1.456;2022-12-29T11:36:48;100177.84;;;14.97;100.00
73821;BME280;62150;43.582;1.456;2022-12-29T11:39:31;100170.63;;;15.18;100.00
73821;BME280;62150;43.582;1.456;2022-12-29T11:42:00;100164.97;;;15.11;100.00
73821;BME280;62150;43.582;1.456;2022-12-29T11:44:34;100162.38;;;15.11;100.00
73821;BME280;62150;43.582;1.456;2022-12-29T11:47:05;100158.06;;;14.96;100.00
73821;BME280;62150;43.582;1.456;2022-12-29T11:49:35;100151.78;;;15.00;100.00
73821;BME280;62150;43.582;1.456;2022-12-29T11:52:02;100152.72;;;14.99;100.00
73821;BME280;62150;43.582;1.456;2022-12-29T11:54:32;100140.31;;;15.34;100.00
73821;BME280;62150;43.582;1.456;2022-12-29T11:57:10;100131.81;;;15.18;100.00
73821;BME280;62150;43.582;1.456;2022-12-29T11:59:41;100124.22;;;15.15;100.00
73821;BME280;62150;43.582;1.456;2022-12-29T12:02:31;100119.72;;;15.47;100.00
73821;BME280;62150;43.582;1.456;2022-12-29T12:05:07;100114.97;;;15.25;100.00
73821;BME280;62150;43.582;1.456;2022-12-29T12:07:41;100111.84;;;15.20;100.00
73821;BME280;62150;43.582;1.456;2022-12-29T12:10:21;100098.72;;;15.23;100.00
73821;BME280;62150;43.582;1.456;2022-12-29T12:12:55;100098.19;;;15.60;100.00
73821;BME280;62150;43.582;1.456;2022-12-29T12:15:27;100101.06;;;15.70;100.00
73821;BME280;62150;43.582;1.456;2022-12-29T12:18:04;100087.38;;;15.54;100.00
73821;BME280;62150;43.582;1.456;2022-12-29T12:20:42;100088.66;;;15.61;100.00
73821;BME280;62150;43.582;1.456;2022-12-29T12:23:32;100080.63;;;15.51;100.00
73821;BME280;62150;43.582;1.456;2022-12-29T12:26:09;100081.22;;;15.26;100.00
73821;BME280;62150;43.582;1.456;2022-12-29T12:28:43;100074.06;;;15.46;100.00
73821;BME280;62150;43.582;1.456;2022-12-29T12:31:30;100075.91;;;15.43;100.00
73821;BME280;62150;43.582;1.456;2022-12-29T12:34:07;100074.53;;;15.52;100.00
73821;BME280;62150;43.582;1.456;2022-12-29T12:36:51;100062.88;;;15.88;100.00
73821;BME280;62150;43.582;1.456;2022-12-29T12:39:26;100055.38;;;15.40;100.00
73821;BME280;62150;43.582;1.456;2022-12-29T12:42:03;100058.81;;;15.55;100.00
73821;BME280;62150;43.582;1.456;2022-12-29T12:44:39;100054.44;;;15.70;100.00
73821;BME280;62150;43.582;1.456;2022-12-29T12:47:26;100047.69;;;15.82;100.00
73821;BME280;62150;43.582;1.456;2022-12-29T12:50:18;100046.41;;;16.16;100.00
73821;BME280;62150;43.582;1.456;2022-12-29T12:53:07;100039.72;;;15.85;100.00
73821;BME280;62150;43.582;1.456;2022-12-29T12:56:01;100044.56;;;15.77;100.00
73821;BME280;62150;43.582;1.456;2022-12-29T12:58:36;100037.91;;;15.72;100.00
73821;BME280;62150;43.582;1.456;2022-12-29T13:01:18;100030.78;;;15.62;100.00
73821;BME280;62150;43.582;1.456;2022-12-29T13:06:49;100032.16;;;15.53;100.00
73821;BME280;62150;43.582;1.456;2022-12-29T13:09:31;100030.22;;;15.42;100.00
73821;BME280;62150;43.582;1.456;2022-12-29T13:12:10;100030.78;;;15.33;100.00
73821;BME280;62150;43.582;1.456;2022-12-29T13:14:51;100024.69;;;15.20;100.00
73821;BME280;62150;43.582;1.456;2022-12-29T13:17:30;100034.56;;;15.28;100.00
73821;BME280;62150;43.582;1.456;2022-12-29T13:20:06;100038.56;;;15.19;100.00
73821;BME280;62150;43.582;1.456;2022-12-29T13:22:47;100044.47;;;15.35;100.00
73821;BME280;62150;43.582;1.456;2022-12-29T13:25:27;100040.13;;;15.50;100.00
73821;BME280;62150;43.582;1.456;2022-12-29T13:28:00;100039.81;;;15.26;100.00
73821;BME280;62150;43.582;1.456;2022-12-29T13:30:34;100037.78;;;15.31;100.00
73821;BME280;62150;43.582;1.456;2022-12-29T13:33:10;100046.22;;;15.21;100.00
73821;BME280;62150;43.582;1.456;2022-12-29T13:35:56;100055.81;;;15.33;100.00
73821;BME280;62150;43.582;1.456;2022-12-29T13:38:32;100057.84;;;15.28;100.00
73821;BME280;62150;43.582;1.456;2022-12-29T13:41:05;100060.16;;;15.32;100.00
73821;BME280;62150;43.582;1.456;2022-12-29T13:43:37;100055.31;;;15.56;100.00
73821;BME280;62150;43.582;1.456;2022-12-29T13:46:10;100055.94;;;15.46;100.00
73821;BME280;62150;43.582;1.456;2022-12-29T13:48:43;100058.88;;;15.54;100.00
73821;BME280;62150;43.582;1.456;2022-12-29T13:51:12;100064.03;;;15.96;100.00
73821;BME280;62150;43.582;1.456;2022-12-29T13:53:55;100060.56;;;15.83;100.00
73821;BME280;62150;43.582;1.456;2022-12-29T13:56:30;100062.06;;;16.00;100.00
73821;BME280;62150;43.582;1.456;2022-12-29T13:59:05;100060.19;;;15.89;100.00
73821;BME280;62150;43.582;1.456;2022-12-29T14:01:39;100064.56;;;16.01;100.00
73821;BME280;62150;43.582;1.456;2022-12-29T14:04:16;100061.44;;;15.96;100.00
73821;BME280;62150;43.582;1.456;2022-12-29T14:06:59;100056.13;;;16.12;100.00
73821;BME280;62150;43.582;1.456;2022-12-29T14:09:47;100047.41;;;15.86;100.00
73821;BME280;62150;43.582;1.456;2022-12-29T14:12:29;100055.00;;;16.16;100.00
73821;BME280;62150;43.582;1.456;2022-12-29T14:15:13;100053.00;;;16.34;100.00
73821;BME280;62150;43.582;1.456;2022-12-29T14:17:42;100052.59;;;16.40;100.00
73821;BME280;62150;43.582;1.456;2022-12-29T14:20:19;100044.47;;;16.05;100.00
73821;BME280;62150;43.582;1.456;2022-12-29T14:23:00;100046.78;;;16.09;100.00
73821;BME280;62150;43.582;1.456;2022-12-29T14:25:55;100046.94;;;15.94;100.00
73821;BME280;62150;43.582;1.456;2022-12-29T14:28:24;100050.50;;;16.05;100.00
73821;BME280;62150;43.582;1.456;2022-12-29T14:30:54;100060.44;;;16.26;100.00
73821;BME280;62150;43.582;1.456;2022-12-29T14:33:23;100062.63;;;16.32;100.00
73821;BME280;62150;43.582;1.456;2022-12-29T14:35:53;100064.16;;;16.22;100.00
73821;BME280;62150;43.582;1.456;2022-12-29T14:38:24;100057.19;;;15.95;100.00
73821;BME280;62150;43.582;1.456;2022-12-29T14:40:53;100053.75;;;15.95;100.00
73821;BME280;62150;43.582;1.456;2022-12-29T14:43:56;100050.03;;;15.58;100.00
73821;BME280;62150;43.582;1.456;2022-12-29T14:46:24;100045.19;;;15.80;100.00
73821;BME280;62150;43.582;1.456;2022-12-29T14:48:56;100058.81;;;15.69;100.00
73821;BME280;62150;43.582;1.456;2022-12-29T14:51:33;100067.03;;;15.48;100.00
73821;BME280;62150;43.582;1.456;2022-12-29T14:54:41;100063.78;;;15.72;100.00
73821;BME280;62150;43.582;1.456;2022-12-29T14:57:15;100056.28;;;15.82;100.00
73821;BME280;62150;43.582;1.456;2022-12-29T14:59:48;100041.88;;;15.50;100.00
73821;BME280;62150;43.582;1.456;2022-12-29T15:02:22;100041.78;;;15.37;100.00
73821;BME280;62150;43.582;1.456;2022-12-29T15:04:53;100046.13;;;15.22;100.00
73821;BME280;62150;43.582;1.456;2022-12-29T15:07:22;100046.66;;;15.27;100.00
73821;BME280;62150;43.582;1.456;2022-12-29T15:09:53;100047.69;;;15.25;100.00
73821;BME280;62150;43.582;1.456;2022-12-29T15:12:33;100038.91;;;15.27;100.00
73821;BME280;62150;43.582;1.456;2022-12-29T15:15:18;100048.53;;;15.54;100.00
73821;BME280;62150;43.582;1.456;2022-12-29T15:17:46;100060.72;;;15.37;100.00
73821;BME280;62150;43.582;1.456;2022-12-29T15:20:32;100059.91;;;15.23;100.00
73821;BME280;62150;43.582;1.456;2022-12-29T15:23:03;100052.41;;;15.18;100.00
73821;BME280;62150;43.582;1.456;2022-12-29T15:25:36;100056.66;;;15.33;100.00
73821;BME280;62150;43.582;1.456;2022-12-29T15:28:13;100061.94;;;15.18;100.00
73821;BME280;62150;43.582;1.456;2022-12-29T15:30:52;100067.41;;;15.56;100.00
73821;BME280;62150;43.582;1.456;2022-12-29T15:33:22;100074.97;;;15.45;100.00
73821;BME280;62150;43.582;1.456;2022-12-29T15:35:51;100069.78;;;15.30;100.00
73821;BME280;62150;43.582;1.456;2022-12-29T15:38:22;100072.53;;;15.27;100.00
73821;BME280;62150;43.582;1.456;2022-12-29T15:40:54;100079.88;;;15.21;100.00
73821;BME280;62150;43.582;1.456;2022-12-29T15:43:38;100089.16;;;15.09;100.00
73821;BME280;62150;43.582;1.456;2022-12-29T15:46:11;100107.94;;;15.13;100.00
73821;BME280;62150;43.582;1.456;2022-12-29T15:48:39;100120.22;;;15.09;100.00
73821;BME280;62150;43.582;1.456;2022-12-29T15:51:17;100140.84;;;15.11;100.00
73821;BME280;62150;43.582;1.456;2022-12-29T15:53:48;100147.09;;;15.06;100.00
73821;BME280;62150;43.582;1.456;2022-12-29T15:56:16;100163.47;;;15.07;100.00
73821;BME280;62150;43.582;1.456;2022-12-29T15:58:46;100171.72;;;15.14;100.00
73821;BME280;62150;43.582;1.456;2022-12-29T16:01:22;100186.50;;;15.12;100.00
73821;BME280;62150;43.582;1.456;2022-12-29T16:03:51;100187.44;;;14.95;100.00
73821;BME280;62150;43.582;1.456;2022-12-29T16:06:30;100183.34;;;14.91;100.00
73821;BME280;62150;43.582;1.456;2022-12-29T16:09:00;100185.16;;;15.04;100.00
73821;BME280;62150;43.582;1.456;2022-12-29T16:11:32;100184.19;;;14.91;100.00
73821;BME280;62150;43.582;1.456;2022-12-29T16:14:01;100184.59;;;15.29;100.00
73821;BME280;62150;43.582;1.456;2022-12-29T16:16:33;100183.72;;;15.15;100.00
73821;BME280;62150;43.582;1.456;2022-12-29T16:19:08;100185.81;;;15.08;100.00
73821;BME280;62150;43.582;1.456;2022-12-29T16:21:38;100196.53;;;15.02;100.00
73821;BME280;62150;43.582;1.456;2022-12-29T16:24:08;100201.28;;;14.94;100.00
73821;BME280;62150;43.582;1.456;2022-12-29T16:26:36;100215.03;;;15.10;100.00
73821;BME280;62150;43.582;1.456;2022-12-29T16:29:06;100211.38;;;15.14;100.00
73821;BME280;62150;43.582;1.456;2022-12-29T16:31:38;100227.47;;;15.19;100.00
73821;BME280;62150;43.582;1.456;2022-12-29T16:34:23;100240.03;;;15.25;100.00
73821;BME280;62150;43.582;1.456;2022-12-29T16:36:57;100248.91;;;15.21;100.00
73821;BME280;62150;43.582;1.456;2022-12-29T16:39:27;100252.59;;;15.01;100.00
73821;BME280;62150;43.582;1.456;2022-12-29T16:41:56;100236.03;;;14.74;100.00
73821;BME280;62150;43.582;1.456;2022-12-29T16:44:25;100212.41;;;14.80;100.00
73821;BME280;62150;43.582;1.456;2022-12-29T16:47:16;100204.00;;;14.45;100.00
73821;BME280;62150;43.582;1.456;2022-12-29T16:49:50;100196.47;;;14.40;100.00
73821;BME280;62150;43.582;1.456;2022-12-29T16:52:21;100204.19;;;14.25;100.00
73821;BME280;62150;43.582;1.456;2022-12-29T16:54:53;100217.53;;;14.33;100.00
73821;BME280;62150;43.582;1.456;2022-12-29T16:57:23;100230.84;;;14.25;100.00
73821;BME280;62150;43.582;1.456;2022-12-29T16:59:53;100247.47;;;14.37;100.00
73821;BME280;62150;43.582;1.456;2022-12-29T17:02:24;100261.53;;;14.49;100.00
73821;BME280;62150;43.582;1.456;2022-12-29T17:04:52;100260.47;;;14.53;100.00
73821;BME280;62150;43.582;1.456;2022-12-29T17:07:21;100267.47;;;14.66;100.00
73821;BME280;62150;43.582;1.456;2022-12-29T17:09:49;100312.72;;;14.25;100.00
73821;BME280;62150;43.582;1.456;2022-12-29T17:12:21;100327.44;;;14.40;100.00
73821;BME280;62150;43.582;1.456;2022-12-29T17:14:51;100337.75;;;14.57;100.00
73821;BME280;62150;43.582;1.456;2022-12-29T17:17:24;100355.13;;;14.38;100.00
73821;BME280;62150;43.582;1.456;2022-12-29T17:19:59;100385.50;;;13.64;100.00
73821;BME280;62150;43.582;1.456;2022-12-29T17:22:29;100372.91;;;13.75;100.00
73821;BME280;62150;43.582;1.456;2022-12-29T17:24:58;100367.47;;;13.45;100.00
73821;BME280;62150;43.582;1.456;2022-12-29T17:27:29;100369.53;;;13.56;100.00
73821;BME280;62150;43.582;1.456;2022-12-29T17:30:00;100349.63;;;13.40;100.00
73821;BME280;62150;43.582;1.456;2022-12-29T17:32:31;100350.59;;;13.38;100.00
73821;BME280;62150;43.582;1.456;2022-12-29T17:34:58;100359.13;;;13.21;100.00
73821;BME280;62150;43.582;1.456;2022-12-29T17:37:35;100354.72;;;13.23;100.00
73821;BME280;62150;43.582;1.456;2022-12-29T17:40:04;100354.38;;;13.50;100.00
73821;BME280;62150;43.582;1.456;2022-12-29T17:42:32;100364.09;;;13.62;100.00